Treichlers, Pennsylvania
Current Conditions -  °F | °C
As of 11:51 PM on Thursday 30 Oct 2014 (Local Time) from KABE Reporting Station
Clear Clear  
Wind Chill: 38°   Ceiling: Unl
Heat Index: 38°   Visibility: 10mi
Dew Point: 31°   Wind: 3mph
Humidity: 76%   Direction: 290°WNW
Pressure: 30.04"   Gusts: NA
Location:  40.73°N, 75.54°W
Report Text: KABE 310351Z 29003KT 10SM CLR 03/M01 A3004 RMK AO2 SLP173 T00331006
Loading
Personal Weather Stations






























Interactive Weather Map
Tropical Storm Tracking
New forecast layout! Learn more

10-Day Weather Forecast

Advertisements
Track Severe Weather on mobile